Time;durP1;ratioP1;P1;durP2;ratioP2;P2;SDS_P1;SDS_P2;PMS_P1;PMS_P2;Temp;Humidity;BMP_temperature;BMP_pressure;BME280_temperature;BME280_humidity;BME280_pressure;Samples;Min_cycle;Max_cycle;Signal;HPM_P1;HPM_P2
2023/12/23 00:02:08;;;;;;;1.50;0.57;;;17.50;66.30;;;;;;6165170;23;20153;-85
2023/12/23 00:04:34;;;;;;;0.80;0.50;;;17.50;66.00;;;;;;6166306;23;20200;-85
2023/12/23 00:07:00;;;;;;;0.98;0.60;;;17.50;65.70;;;;;;6216858;23;20142;-86
2023/12/23 00:09:26;;;;;;;1.40;0.60;;;17.50;66.00;;;;;;6166165;23;20157;-86
2023/12/23 00:11:52;;;;;;;0.90;0.47;;;17.60;66.30;;;;;;6165063;23;20181;-86
2023/12/23 00:14:18;;;;;;;0.98;0.50;;;17.50;66.10;;;;;;6190017;23;20138;-86
2023/12/23 00:16:44;;;;;;;0.63;0.40;;;17.50;65.80;;;;;;6160159;23;20228;-87
2023/12/23 00:19:10;;;;;;;0.93;0.60;;;17.60;65.80;;;;;;6160150;23;20143;-87
2023/12/23 00:21:36;;;;;;;1.80;0.40;;;17.50;66.20;;;;;;6159886;23;20218;-86
2023/12/23 00:24:02;;;;;;;1.00;0.52;;;17.50;66.00;;;;;;6158985;23;20142;-86
2023/12/23 00:26:30;;;;;;;1.50;0.43;;;17.50;66.10;;;;;;6184003;23;20186;-87
2023/12/23 00:28:57;;;;;;;1.77;0.60;;;17.50;66.00;;;;;;6110279;23;20158;-86
2023/12/23 00:31:25;;;;;;;1.50;0.77;;;17.50;66.50;;;;;;6110192;23;20154;-88
2023/12/23 00:33:52;;;;;;;0.70;0.60;;;17.50;66.30;;;;;;6086233;23;20524;-87
2023/12/23 00:36:19;;;;;;;1.00;0.55;;;17.50;66.20;;;;;;6110040;23;20182;-87
2023/12/23 00:38:45;;;;;;;0.98;0.40;;;17.50;65.80;;;;;;6086101;23;20157;-86
2023/12/23 00:41:12;;;;;;;0.93;0.60;;;17.50;66.00;;;;;;6159938;23;20213;-87
2023/12/23 00:43:38;;;;;;;1.13;0.60;;;17.50;66.00;;;;;;6160194;23;20143;-87
2023/12/23 00:46:04;;;;;;;0.95;0.60;;;17.50;66.10;;;;;;6185967;23;20139;-86
2023/12/23 00:48:30;;;;;;;1.90;0.40;;;17.50;66.10;;;;;;6133550;23;20505;-86
2023/12/23 00:51:00;;;;;;;0.82;0.50;;;17.40;65.80;;;;;;6133926;23;20138;-84
2023/12/23 00:53:26;;;;;;;1.35;0.60;;;17.40;66.10;;;;;;6109163;23;20617;-87
2023/12/23 00:55:54;;;;;;;0.82;0.50;;;17.50;67.20;;;;;;6108825;23;20193;-84
2023/12/23 00:58:23;;;;;;;0.77;0.50;;;17.50;66.00;;;;;;6108510;23;20154;-85
2023/12/23 01:00:51;;;;;;;0.95;0.60;;;17.50;66.10;;;;;;6084584;23;20154;-87
2023/12/23 01:03:19;;;;;;;0.85;0.40;;;17.40;66.10;;;;;;6084763;23;20598;-87
2023/12/23 01:05:47;;;;;;;1.02;0.60;;;17.50;66.20;;;;;;6108529;23;20157;-86
2023/12/23 01:08:12;;;;;;;1.45;0.55;;;17.40;66.00;;;;;;6108861;23;20157;-85
2023/12/23 01:10:42;;;;;;;0.47;0.47;;;17.40;66.20;;;;;;6133973;23;20139;-88
2023/12/23 01:13:12;;;;;;;1.23;0.50;;;17.40;66.30;;;;;;6085264;23;20216;-87
2023/12/23 01:15:42;;;;;;;0.50;0.50;;;17.40;66.20;;;;;;6085675;23;20155;-88
2023/12/23 01:18:12;;;;;;;0.52;0.40;;;17.40;66.10;;;;;;6085994;23;20166;-86
2023/12/23 01:20:43;;;;;;;0.77;0.50;;;17.40;65.80;;;;;;6086000;23;20161;-86
2023/12/23 01:23:13;;;;;;;1.27;0.50;;;17.50;65.70;;;;;;6109810;23;20204;-86
2023/12/23 01:25:44;;;;;;;1.15;0.50;;;17.50;66.20;;;;;;6110426;23;20150;-87
2023/12/23 01:28:13;;;;;;;0.93;0.50;;;17.50;66.20;;;;;;6159960;23;20269;-86
2023/12/23 01:30:42;;;;;;;0.90;0.60;;;17.40;65.90;;;;;;6109841;23;20161;-86
2023/12/23 01:33:10;;;;;;;0.65;0.65;;;17.40;66.10;;;;;;6110364;23;20197;-86
2023/12/23 01:35:36;;;;;;;0.60;0.50;;;17.40;66.10;;;;;;6110010;23;20157;-87
2023/12/23 01:38:06;;;;;;;0.80;0.60;;;17.40;66.10;;;;;;6157365;23;20166;-86
2023/12/23 01:40:36;;;;;;;3.15;0.60;;;17.50;66.20;;;;;;6108290;23;20151;-86
2023/12/23 01:43:02;;;;;;;1.10;0.60;;;17.40;66.00;;;;;;6107553;23;20159;-88
2023/12/23 01:45:33;;;;;;;1.27;0.55;;;17.40;66.20;;;;;;6158184;23;20143;-87
2023/12/23 01:48:00;;;;;;;0.80;0.50;;;17.40;67.10;;;;;;6084937;23;20590;-86
2023/12/23 01:50:27;;;;;;;0.52;0.40;;;17.40;66.10;;;;;;6110062;23;20149;-86
2023/12/23 01:52:56;;;;;;;0.98;0.50;;;17.40;66.00;;;;;;6109081;23;20630;-85
2023/12/23 01:55:23;;;;;;;0.50;0.40;;;17.40;66.20;;;;;;6109157;23;20151;-86
2023/12/23 01:57:53;;;;;;;0.52;0.40;;;17.30;66.10;;;;;;6135276;23;20209;-87
2023/12/23 02:00:22;;;;;;;0.88;0.40;;;17.30;66.20;;;;;;6109792;23;20151;-86
2023/12/23 02:02:49;;;;;;;2.30;0.60;;;17.40;66.30;;;;;;6109007;23;20155;-87
2023/12/23 02:07:45;;;;;;;1.48;0.60;;;17.40;66.30;;;;;;6215491;23;20640;-86
2023/12/23 02:13:14;;;;;;;0.60;0.50;;;17.40;66.10;;;;;;6187772;23;20200;-86
2023/12/23 02:15:43;;;;;;;0.80;0.60;;;17.40;66.20;;;;;;6163488;22;20173;-87
2023/12/23 02:18:11;;;;;;;0.68;0.47;;;17.40;66.20;;;;;;6190108;23;20146;-86
2023/12/23 02:20:38;;;;;;;0.55;0.40;;;17.40;66.30;;;;;;6113421;22;20209;-87
2023/12/23 02:23:08;;;;;;;0.70;0.40;;;17.40;66.20;;;;;;6189851;23;20204;-86
2023/12/23 02:25:35;;;;;;;0.88;0.52;;;17.40;66.30;;;;;;6115044;23;20158;-86
2023/12/23 02:28:05;;;;;;;1.05;0.65;;;17.30;65.90;;;;;;6115126;23;20150;-86
2023/12/23 02:30:33;;;;;;;1.70;0.70;;;17.30;65.80;;;;;;6141102;23;20549;-86
2023/12/23 02:33:00;;;;;;;1.20;0.60;;;17.30;65.80;;;;;;6091831;23;20559;-88
2023/12/23 02:35:28;;;;;;;0.65;0.55;;;17.40;66.30;;;;;;6115141;23;20237;-87
2023/12/23 02:37:55;;;;;;;0.70;0.60;;;17.30;66.20;;;;;;6116983;23;20164;-87
2023/12/23 02:40:21;;;;;;;0.63;0.35;;;17.30;65.90;;;;;;6192684;23;20217;-86
2023/12/23 02:42:50;;;;;;;0.50;0.40;;;17.30;66.40;;;;;;6168081;23;20134;-86
2023/12/23 02:45:20;;;;;;;0.60;0.50;;;17.30;66.20;;;;;;6143541;23;20229;-87
2023/12/23 02:47:49;;;;;;;2.15;0.60;;;17.40;65.90;;;;;;6118428;23;20150;-86
2023/12/23 02:50:20;;;;;;;0.82;0.55;;;17.40;65.90;;;;;;6193524;23;20184;-86
2023/12/23 02:52:47;;;;;;;1.42;0.60;;;17.30;66.10;;;;;;6116056;23;20185;-88
2023/12/23 02:55:15;;;;;;;0.82;0.65;;;17.30;66.00;;;;;;6116079;23;20154;-87
2023/12/23 02:57:45;;;;;;;0.93;0.50;;;17.30;66.40;;;;;;6216775;23;20209;-88
2023/12/23 03:00:13;;;;;;;0.80;0.65;;;17.30;65.70;;;;;;6140244;23;20594;-87
2023/12/23 03:02:43;;;;;;;0.60;0.50;;;17.30;66.90;;;;;;6140429;23;20150;-87
2023/12/23 03:05:10;;;;;;;1.38;0.73;;;17.40;65.80;;;;;;6140609;23;20176;-86
2023/12/23 03:07:38;;;;;;;0.98;0.63;;;17.30;65.80;;;;;;6140986;23;20205;-86
2023/12/23 03:10:06;;;;;;;0.73;0.50;;;17.40;65.80;;;;;;6140333;23;20154;-86
2023/12/23 03:12:35;;;;;;;1.20;0.77;;;17.30;66.10;;;;;;6116047;23;20185;-86
2023/12/23 03:15:02;;;;;;;1.10;0.73;;;17.30;65.90;;;;;;6116616;23;20609;-88
2023/12/23 03:17:30;;;;;;;0.65;0.55;;;17.30;65.90;;;;;;6216310;22;20201;-87
2023/12/23 03:19:58;;;;;;;1.00;0.47;;;17.30;65.90;;;;;;6115752;23;20157;-86
2023/12/23 03:22:26;;;;;;;0.95;0.57;;;17.30;66.00;;;;;;6139607;23;20611;-87
2023/12/23 03:24:53;;;;;;;0.75;0.60;;;17.30;66.10;;;;;;6165169;23;20153;-86
2023/12/23 03:27:21;;;;;;;0.68;0.60;;;17.40;65.90;;;;;;6115621;23;20613;-86
2023/12/23 03:29:48;;;;;;;0.75;0.70;;;17.30;66.10;;;;;;6115435;23;20162;-87
2023/12/23 03:32:16;;;;;;;1.05;0.60;;;17.30;66.00;;;;;;6115727;23;20185;-85
2023/12/23 03:34:43;;;;;;;0.75;0.60;;;17.30;65.80;;;;;;6115671;23;20153;-87
2023/12/23 03:37:11;;;;;;;0.70;0.50;;;17.30;66.10;;;;;;6139980;23;20151;-85
2023/12/23 03:39:38;;;;;;;0.88;0.63;;;17.30;65.70;;;;;;6115806;23;20518;-87
2023/12/23 03:42:06;;;;;;;0.82;0.60;;;17.30;65.80;;;;;;6091871;23;20223;-88
2023/12/23 03:44:33;;;;;;;1.30;0.60;;;17.30;66.80;;;;;;6140199;23;20176;-86
2023/12/23 03:49:36;;;;;;;0.50;0.40;;;17.30;66.10;;;;;;6186736;23;20536;-86
2023/12/23 03:52:04;;;;;;;0.70;0.60;;;17.30;65.80;;;;;;6159770;23;20182;-87
2023/12/23 03:54:31;;;;;;;0.80;0.55;;;17.30;65.70;;;;;;6159440;23;20158;-86
2023/12/23 03:56:58;;;;;;;1.10;0.60;;;17.30;65.90;;;;;;6184161;23;20154;-86
2023/12/23 03:59:25;;;;;;;1.30;0.70;;;17.30;66.10;;;;;;6159035;23;20249;-87
2023/12/23 04:01:55;;;;;;;0.82;0.68;;;17.30;65.80;;;;;;6159427;23;20217;-87
2023/12/23 04:04:20;;;;;;;0.75;0.60;;;17.30;65.90;;;;;;6184220;23;20158;-88
2023/12/23 04:06:46;;;;;;;1.48;0.70;;;17.30;66.10;;;;;;6134716;23;20134;-87
2023/12/23 04:09:13;;;;;;;0.98;0.50;;;17.30;65.90;;;;;;6160400;23;20523;-87
2023/12/23 04:11:40;;;;;;;2.20;0.70;;;17.30;66.00;;;;;;6185050;23;20127;-87
2023/12/23 04:14:05;;;;;;;1.05;0.60;;;17.30;65.90;;;;;;6158962;23;20151;-85
2023/12/23 04:16:33;;;;;;;1.23;0.77;;;17.20;66.00;;;;;;6159789;23;20150;-87
2023/12/23 04:18:59;;;;;;;1.08;0.60;;;17.30;65.90;;;;;;6160204;23;20237;-87
2023/12/23 04:21:28;;;;;;;0.45;0.45;;;17.30;65.90;;;;;;6214040;23;20151;-87
2023/12/23 04:23:58;;;;;;;1.23;0.82;;;17.30;66.10;;;;;;6138843;23;20151;-88
2023/12/23 04:26:29;;;;;;;1.45;0.80;;;17.20;66.00;;;;;;6164259;23;20246;-87
2023/12/23 04:28:57;;;;;;;0.85;0.50;;;17.30;66.10;;;;;;6136754;23;20525;-88
2023/12/23 04:31:27;;;;;;;1.20;0.63;;;17.20;65.80;;;;;;6184882;23;20598;-85
2023/12/23 04:33:52;;;;;;;1.33;0.52;;;17.30;65.90;;;;;;6176457;23;20347;-87
2023/12/23 04:36:23;;;;;;;0.70;0.60;;;17.30;65.80;;;;;;6166199;23;20508;-87
2023/12/23 04:38:51;;;;;;;0.82;0.60;;;17.20;65.80;;;;;;6144467;23;20241;-87
2023/12/23 04:41:17;;;;;;;1.05;0.50;;;17.30;65.90;;;;;;6116868;23;20161;-87
2023/12/23 04:43:45;;;;;;;0.63;0.50;;;17.20;66.70;;;;;;6167306;23;20158;-86
2023/12/23 04:46:13;;;;;;;0.68;0.60;;;17.30;65.90;;;;;;6116581;23;20154;-87
2023/12/23 04:48:41;;;;;;;1.38;0.80;;;17.30;65.80;;;;;;6140871;23;20158;-88
2023/12/23 04:51:11;;;;;;;0.82;0.55;;;17.20;65.80;;;;;;6115667;23;20217;-87
2023/12/23 04:56:05;;;;;;;1.52;0.80;;;17.20;65.80;;;;;;6212688;23;20201;-87
2023/12/23 04:58:33;;;;;;;1.45;0.63;;;17.20;66.00;;;;;;6139501;23;20190;-86
2023/12/23 05:03:26;;;;;;;0.50;0.50;;;17.30;65.80;;;;;;6215882;22;20281;-88
2023/12/23 05:05:54;;;;;;;0.80;0.70;;;17.20;65.60;;;;;;6115629;23;20588;-87
2023/12/23 05:08:21;;;;;;;1.15;0.57;;;17.30;65.90;;;;;;6091070;23;20593;-88
2023/12/23 05:10:49;;;;;;;0.50;0.50;;;17.20;65.90;;;;;;6115506;23;20154;-86
2023/12/23 05:13:16;;;;;;;0.73;0.50;;;17.20;65.80;;;;;;6213883;22;20638;-86
2023/12/23 05:15:44;;;;;;;1.67;0.68;;;17.30;65.60;;;;;;6114838;23;20150;-88
2023/12/23 05:18:11;;;;;;;0.57;0.50;;;17.30;65.60;;;;;;6115102;23;20180;-88
2023/12/23 05:20:39;;;;;;;0.57;0.50;;;17.20;65.80;;;;;;6139591;23;20542;-88
2023/12/23 05:23:06;;;;;;;1.23;0.40;;;17.20;65.90;;;;;;6115023;23;20180;-87
2023/12/23 05:27:58;;;;;;;0.70;0.50;;;17.20;65.80;;;;;;6215762;22;20204;-87
2023/12/23 05:30:26;;;;;;;0.68;0.57;;;17.20;66.10;;;;;;6139281;23;20154;-87
2023/12/23 05:32:53;;;;;;;0.80;0.65;;;17.20;66.00;;;;;;6114616;23;20217;-87
2023/12/23 05:35:20;;;;;;;0.70;0.63;;;17.30;65.60;;;;;;6114505;23;20237;-86
2023/12/23 05:37:47;;;;;;;0.68;0.50;;;17.10;65.70;;;;;;6154378;23;20209;-86
2023/12/23 05:40:14;;;;;;;0.88;0.60;;;17.20;65.60;;;;;;6109511;23;20200;-85
2023/12/23 05:45:14;;;;;;;1.25;0.60;;;17.20;65.90;;;;;;6185506;23;20187;-86
2023/12/23 05:47:42;;;;;;;0.50;0.50;;;17.20;65.70;;;;;;6213280;22;20213;-87
2023/12/23 05:50:10;;;;;;;0.57;0.57;;;17.20;65.40;;;;;;6140185;23;20161;-87
2023/12/23 05:52:37;;;;;;;0.82;0.60;;;17.30;65.70;;;;;;6189530;23;20154;-87
2023/12/23 05:55:03;;;;;;;0.88;0.50;;;17.20;65.80;;;;;;6189277;23;20489;-87
2023/12/23 05:57:29;;;;;;;1.23;0.50;;;17.20;65.70;;;;;;6181917;23;20216;-85
2023/12/23 05:59:55;;;;;;;0.93;0.60;;;17.20;65.80;;;;;;6135459;23;20222;-84
2023/12/23 06:02:21;;;;;;;1.17;0.50;;;17.20;65.50;;;;;;6134834;23;20189;-86
2023/12/23 06:04:47;;;;;;;1.00;0.70;;;17.20;65.50;;;;;;6186021;23;20131;-86
2023/12/23 06:07:14;;;;;;;0.88;0.55;;;17.20;65.70;;;;;;6157801;23;20186;-86
2023/12/23 06:09:40;;;;;;;1.05;0.60;;;17.20;65.60;;;;;;6184937;23;20273;-86
2023/12/23 06:12:07;;;;;;;1.08;0.63;;;17.20;66.00;;;;;;6159120;23;20609;-88
2023/12/23 06:14:33;;;;;;;0.65;0.40;;;17.20;65.60;;;;;;6141179;23;20221;-87
2023/12/23 06:17:02;;;;;;;0.85;0.60;;;17.20;65.60;;;;;;6129274;23;20567;-87
2023/12/23 06:19:31;;;;;;;1.15;0.50;;;17.20;65.60;;;;;;6080284;23;20201;-88
2023/12/23 06:21:57;;;;;;;1.60;0.60;;;17.20;65.60;;;;;;6054905;23;20178;-87
2023/12/23 06:24:22;;;;;;;1.60;0.60;;;17.20;65.80;;;;;;6105434;23;20430;-85
2023/12/23 06:26:48;;;;;;;1.48;0.70;;;17.20;65.80;;;;;;6104851;23;20163;-86
2023/12/23 06:29:17;;;;;;;1.20;0.50;;;17.20;65.60;;;;;;6105853;23;21152;-85
2023/12/23 06:31:45;;;;;;;1.08;0.63;;;17.20;65.70;;;;;;6079765;23;20155;-84
2023/12/23 06:34:14;;;;;;;1.50;0.70;;;17.20;65.70;;;;;;6156569;23;20232;-85
2023/12/23 06:36:43;;;;;;;1.50;0.80;;;17.20;65.80;;;;;;6134211;23;20162;-86
2023/12/23 06:39:11;;;;;;;0.82;0.50;;;17.20;65.40;;;;;;6109719;23;20151;-87
2023/12/23 06:41:39;;;;;;;0.70;0.70;;;17.10;65.60;;;;;;6109446;23;20206;-85
2023/12/23 06:44:07;;;;;;;0.73;0.50;;;17.10;65.70;;;;;;6107688;23;20155;-85
2023/12/23 06:46:35;;;;;;;0.73;0.60;;;17.10;65.60;;;;;;6132675;23;20154;-85
2023/12/23 06:49:01;;;;;;;0.80;0.80;;;17.20;65.90;;;;;;6132453;23;20190;-85
2023/12/23 06:51:29;;;;;;;1.05;0.80;;;17.20;65.30;;;;;;6182960;23;20482;-85
2023/12/23 06:53:55;;;;;;;1.25;0.75;;;17.20;65.60;;;;;;6132370;23;20189;-85
2023/12/23 06:56:24;;;;;;;0.95;0.70;;;17.10;65.50;;;;;;6159242;23;20222;-86
2023/12/23 06:58:52;;;;;;;1.25;0.60;;;17.10;65.50;;;;;;6110909;23;20158;-85
2023/12/23 07:01:21;;;;;;;1.52;0.60;;;17.20;65.50;;;;;;6111457;23;20158;-85
2023/12/23 07:03:49;;;;;;;1.05;0.63;;;17.10;65.60;;;;;;6110812;23;20150;-85
2023/12/23 07:06:17;;;;;;;0.57;0.40;;;17.20;65.80;;;;;;6110705;23;20155;-86
2023/12/23 07:08:46;;;;;;;1.50;0.70;;;17.10;65.60;;;;;;6111298;23;20575;-86
2023/12/23 07:11:14;;;;;;;0.98;0.60;;;17.20;65.60;;;;;;6135170;23;20146;-85
2023/12/23 07:13:42;;;;;;;0.77;0.60;;;17.20;65.30;;;;;;6111994;23;20217;-87
2023/12/23 07:16:10;;;;;;;0.90;0.57;;;17.20;65.50;;;;;;6135671;23;20165;-87
2023/12/23 07:18:38;;;;;;;0.60;0.50;;;17.20;65.00;;;;;;6111374;23;20154;-85
2023/12/23 07:21:04;;;;;;;0.60;0.50;;;17.20;65.90;;;;;;6134598;23;20626;-85
2023/12/23 07:23:32;;;;;;;1.50;0.80;;;17.20;65.30;;;;;;6158950;23;20185;-85
2023/12/23 07:26:00;;;;;;;2.00;0.77;;;17.20;65.50;;;;;;6087202;23;20209;-86
2023/12/23 07:28:28;;;;;;;0.80;0.70;;;17.20;65.60;;;;;;6087374;23;20151;-86
2023/12/23 07:30:54;;;;;;;0.60;0.60;;;17.20;65.80;;;;;;6135327;23;20157;-86
2023/12/23 07:33:21;;;;;;;0.70;0.50;;;17.10;65.50;;;;;;6130458;23;20206;-85
2023/12/23 07:35:48;;;;;;;1.17;0.60;;;17.20;65.50;;;;;;6156965;23;20147;-86
2023/12/23 07:38:15;;;;;;;0.50;0.40;;;17.20;65.40;;;;;;6083036;23;20155;-86
2023/12/23 07:40:43;;;;;;;0.70;0.52;;;17.10;65.10;;;;;;6082958;23;20614;-87
2023/12/23 07:43:11;;;;;;;0.80;0.70;;;17.20;65.40;;;;;;6135345;23;20488;-86
2023/12/23 07:45:41;;;;;;;0.75;0.70;;;17.20;65.20;;;;;;6086036;23;20155;-87
2023/12/23 07:48:09;;;;;;;1.27;0.60;;;17.20;65.60;;;;;;6109240;23;20148;-86
2023/12/23 07:50:34;;;;;;;0.63;0.47;;;17.20;65.40;;;;;;6084098;23;20655;-86
2023/12/23 07:53:00;;;;;;;0.93;0.60;;;17.20;65.20;;;;;;6155905;23;20171;-86
2023/12/23 07:57:59;;;;;;;0.90;0.65;;;17.20;65.00;;;;;;6187143;23;20199;-87
2023/12/23 08:00:25;;;;;;;1.38;0.63;;;17.20;65.10;;;;;;6184990;23;20194;-86
2023/12/23 08:02:50;;;;;;;0.82;0.60;;;17.30;64.60;;;;;;6136307;23;20143;-88
2023/12/23 08:05:18;;;;;;;0.70;0.65;;;17.20;64.60;;;;;;6187911;23;20131;-86
2023/12/23 08:07:46;;;;;;;0.65;0.63;;;17.30;64.60;;;;;;6159741;23;20182;-87
2023/12/23 08:10:11;;;;;;;0.63;0.60;;;17.30;64.60;;;;;;6160051;23;20155;-87
2023/12/23 08:12:41;;;;;;;0.93;0.70;;;17.30;64.50;;;;;;6161202;23;20248;-87
2023/12/23 08:15:07;;;;;;;0.60;0.50;;;17.30;64.60;;;;;;6134128;23;20147;-87
2023/12/23 08:17:37;;;;;;;0.82;0.60;;;17.40;64.30;;;;;;6161721;23;20513;-87
2023/12/23 08:20:06;;;;;;;1.00;0.60;;;17.40;63.90;;;;;;6138588;23;20165;-85
2023/12/23 08:22:35;;;;;;;0.60;0.50;;;17.40;63.00;;;;;;6187153;23;20660;-86
2023/12/23 08:25:05;;;;;;;0.80;0.65;;;17.40;63.90;;;;;;6168880;23;20151;-86
2023/12/23 08:27:39;;;;;;;0.70;0.50;;;17.50;62.70;;;;;;6180406;23;20158;-87
2023/12/23 08:30:10;;;;;;;0.95;0.55;;;17.50;63.10;;;;;;6200369;23;20150;-86
2023/12/23 08:32:44;;;;;;;0.88;0.65;;;17.50;63.40;;;;;;6198258;23;20602;-84
2023/12/23 08:35:29;;;;;;;0.80;0.70;;;17.50;63.20;;;;;;6174142;23;20214;-87
2023/12/23 08:37:58;;;;;;;1.33;0.60;;;17.50;63.20;;;;;;6142218;23;20150;-86
2023/12/23 08:40:30;;;;;;;0.63;0.55;;;17.50;63.40;;;;;;6170871;23;20205;-88
2023/12/23 08:42:56;;;;;;;0.68;0.60;;;17.50;63.30;;;;;;6139190;23;20238;-86
2023/12/23 08:45:23;;;;;;;0.60;0.52;;;17.50;63.50;;;;;;6107299;23;20275;-85
2023/12/23 08:47:49;;;;;;;0.60;0.50;;;17.50;63.50;;;;;;6081737;23;20155;-86
2023/12/23 08:50:15;;;;;;;0.70;0.50;;;17.50;63.90;;;;;;6107224;23;20180;-85
2023/12/23 08:52:41;;;;;;;1.42;0.70;;;17.50;63.80;;;;;;6107221;23;20186;-85
2023/12/23 08:55:13;;;;;;;1.67;1.08;;;17.50;63.40;;;;;;6083391;23;20151;-85
2023/12/23 08:57:46;;;;;;;0.88;0.70;;;17.50;63.80;;;;;;6083083;23;20206;-86
2023/12/23 09:00:18;;;;;;;1.55;0.60;;;17.50;64.10;;;;;;6083680;23;20162;-85
2023/12/23 09:02:50;;;;;;;1.00;0.60;;;17.50;63.20;;;;;;6107673;23;20171;-84
2023/12/23 09:05:36;;;;;;;1.40;0.60;;;17.50;63.50;;;;;;6083734;23;20159;-85
2023/12/23 09:08:01;;;;;;;2.40;0.80;;;17.50;63.80;;;;;;6129203;23;20155;-85
2023/12/23 09:10:45;;;;;;;0.55;0.45;;;17.50;63.30;;;;;;6084122;23;20163;-87
2023/12/23 09:13:11;;;;;;;1.15;0.45;;;17.50;63.50;;;;;;6114192;23;20182;-85
2023/12/23 09:15:43;;;;;;;0.88;0.60;;;17.50;63.40;;;;;;6163123;23;20821;-85
2023/12/23 09:18:13;;;;;;;0.70;0.50;;;17.50;63.10;;;;;;6088331;23;20490;-85
2023/12/23 09:20:43;;;;;;;0.63;0.63;;;17.50;63.20;;;;;;6138497;23;20503;-85
2023/12/23 09:23:10;;;;;;;0.60;0.47;;;17.60;62.20;;;;;;6086792;23;20217;-85
2023/12/23 09:25:36;;;;;;;0.73;0.57;;;17.60;62.70;;;;;;6112953;23;20135;-85
2023/12/23 09:28:02;;;;;;;0.73;0.50;;;17.60;62.80;;;;;;6160991;23;20131;-85
2023/12/23 09:30:31;;;;;;;2.63;0.68;;;17.60;62.50;;;;;;6137468;23;20142;-85
2023/12/23 09:33:01;;;;;;;2.50;0.60;;;17.60;62.80;;;;;;6138747;23;20170;-86
2023/12/23 09:35:30;;;;;;;0.77;0.55;;;17.60;62.50;;;;;;6137545;23;20177;-85
2023/12/23 09:37:59;;;;;;;1.67;0.70;;;17.60;63.00;;;;;;6139238;23;20150;-85
2023/12/23 09:40:29;;;;;;;1.48;0.50;;;17.60;63.20;;;;;;6138923;23;20143;-85
2023/12/23 09:42:55;;;;;;;1.58;0.80;;;17.70;62.70;;;;;;6140929;23;20154;-87
2023/12/23 09:45:33;;;;;;;;;;;;;;;;;;;;;
2023/12/23 09:48:22;;;;;;;;;;;;;;;;;;;;;
2023/12/23 09:54:05;;;;;;;0.60;0.60;;;17.90;63.00;;;;;;5995851;23;20194;-85
2023/12/23 09:56:36;;;;;;;2.00;0.73;;;17.80;63.10;;;;;;5969567;23;20661;-86
2023/12/23 09:59:22;;;;;;;;;;;;;;;;;;;;;
2023/12/23 10:01:59;;;;;;;1.02;0.70;;;17.80;63.00;;;;;;5964839;23;20190;-86
2023/12/23 10:04:45;;;;;;;1.08;0.60;;;17.80;62.30;;;;;;5968497;23;20157;-85
2023/12/23 10:08:17;;;;;;;2.75;0.75;;;17.80;63.10;;;;;;5998311;23;20178;-84
2023/12/23 10:11:29;;;;;;;;;;;;;;;;;;;;;
2023/12/23 10:14:24;;;;;;;5.10;0.85;;;17.90;63.60;;;;;;5912945;24;20211;-85
2023/12/23 10:17:04;;;;;;;0.93;0.63;;;17.90;62.20;;;;;;5934823;24;20176;-85
2023/12/23 10:20:12;;;;;;;1.48;0.70;;;17.90;61.40;;;;;;5902109;24;20155;-82
2023/12/23 10:22:36;;;;;;;1.52;0.90;;;18.00;62.50;;;;;;5984989;24;20151;-86
2023/12/23 10:25:08;;;;;;;3.38;0.75;;;18.00;61.70;;;;;;6034532;23;20169;-85
2023/12/23 10:27:36;;;;;;;1.75;0.50;;;18.00;62.30;;;;;;5998259;23;20578;-86
2023/12/23 10:30:05;;;;;;;0.82;0.60;;;18.00;62.40;;;;;;6019695;23;20134;-85
2023/12/23 10:32:32;;;;;;;2.03;0.70;;;18.00;63.40;;;;;;5995604;23;20186;-85
2023/12/23 10:35:00;;;;;;;1.40;0.80;;;18.00;62.80;;;;;;6021237;23;20246;-86
2023/12/23 10:37:27;;;;;;;1.60;0.80;;;18.00;62.70;;;;;;6002652;23;20594;-86
2023/12/23 10:40:27;;;;;;;0.95;0.70;;;18.00;63.10;;;;;;5999956;23;20152;-86
2023/12/23 10:43:01;;;;;;;3.42;0.80;;;18.00;63.50;;;;;;6019865;23;20178;-85
2023/12/23 10:45:35;;;;;;;2.03;0.70;;;18.00;62.90;;;;;;6000588;23;20158;-85
2023/12/23 10:48:02;;;;;;;1.20;0.70;;;18.10;64.00;;;;;;6028650;23;20608;-85
2023/12/23 10:50:30;;;;;;;1.65;0.70;;;18.10;64.50;;;;;;6082571;23;20158;-84
2023/12/23 10:52:57;;;;;;;1.58;0.90;;;18.10;65.00;;;;;;6166760;23;20178;-87
2023/12/23 10:55:30;;;;;;;3.55;0.82;;;18.10;65.40;;;;;;6165273;23;20158;-84
2023/12/23 10:57:56;;;;;;;1.23;0.73;;;18.10;65.50;;;;;;6164629;23;20526;-84
2023/12/23 11:00:32;;;;;;;4.20;0.90;;;18.10;65.40;;;;;;6168686;23;20146;-87
2023/12/23 11:02:58;;;;;;;4.57;0.80;;;18.10;65.80;;;;;;6164864;23;20664;-86
2023/12/23 11:05:35;;;;;;;2.25;0.88;;;18.10;64.60;;;;;;6166140;23;20134;-85
2023/12/23 11:08:19;;;;;;;2.78;0.80;;;18.10;65.00;;;;;;6166089;23;20150;-86
2023/12/23 11:10:46;;;;;;;2.90;0.70;;;18.20;65.60;;;;;;6105573;23;20228;-86
2023/12/23 11:13:13;;;;;;;1.98;0.88;;;18.20;64.90;;;;;;6105888;23;20188;-87
2023/12/23 11:15:44;;;;;;;3.70;1.00;;;18.20;63.80;;;;;;6082996;23;20144;-85
2023/12/23 11:18:13;;;;;;;6.15;1.10;;;18.20;64.40;;;;;;6059280;23;20156;-85
2023/12/23 11:20:50;;;;;;;8.07;1.38;;;18.30;64.60;;;;;;6130018;23;20207;-87
2023/12/23 11:23:32;;;;;;;6.20;1.17;;;18.20;64.70;;;;;;6060818;23;20167;-87
2023/12/23 11:26:04;;;;;;;5.35;0.80;;;18.20;64.70;;;;;;6106120;23;20286;-88
2023/12/23 11:28:36;;;;;;;7.00;1.10;;;18.20;64.30;;;;;;6080474;23;20144;-87
2023/12/23 11:31:03;;;;;;;11.82;1.30;;;18.20;64.30;;;;;;6082140;23;20259;-86
2023/12/23 11:33:56;;;;;;;13.60;1.30;;;18.20;65.00;;;;;;6105738;23;20251;-88
2023/12/23 11:36:23;;;;;;;10.45;1.63;;;18.20;65.40;;;;;;6165876;23;20174;-89
2023/12/23 11:38:52;;;;;;;7.82;1.33;;;18.20;65.10;;;;;;6142018;23;20155;-87
2023/12/23 11:41:19;;;;;;;12.77;1.73;;;18.20;65.10;;;;;;6169190;23;20212;-85
2023/12/23 11:43:50;;;;;;;6.40;0.90;;;18.20;65.40;;;;;;6195113;23;20211;-87
2023/12/23 11:46:18;;;;;;;5.47;1.10;;;18.20;64.50;;;;;;6111384;23;20152;-84
2023/12/23 11:48:48;;;;;;;7.30;1.38;;;18.30;63.70;;;;;;6089482;23;20152;-86
2023/12/23 11:51:13;;;;;;;3.70;1.20;;;18.30;65.20;;;;;;6107740;23;20161;-85
2023/12/23 11:53:45;;;;;;;6.15;1.05;;;18.30;65.00;;;;;;6133677;23;20184;-85
2023/12/23 11:56:11;;;;;;;9.20;1.30;;;18.30;65.80;;;;;;6112135;23;20226;-87
2023/12/23 11:58:39;;;;;;;5.82;0.95;;;18.30;65.00;;;;;;6075232;23;20153;-85
2023/12/23 12:01:05;;;;;;;3.75;1.25;;;18.30;64.30;;;;;;6075799;23;20180;-87
2023/12/23 12:03:30;;;;;;;8.50;1.58;;;18.30;65.10;;;;;;6074821;23;20163;-86
2023/12/23 12:05:59;;;;;;;3.17;1.00;;;18.30;65.90;;;;;;6074092;23;20137;-86
2023/12/23 12:08:25;;;;;;;4.32;1.42;;;18.30;64.70;;;;;;6074679;23;20208;-85
2023/12/23 12:10:56;;;;;;;7.75;1.10;;;18.30;64.70;;;;;;6074549;23;20221;-84
2023/12/23 12:13:38;;;;;;;4.20;1.15;;;18.30;65.60;;;;;;6040329;23;20186;-86
2023/12/23 12:16:10;;;;;;;2.97;0.95;;;18.30;65.20;;;;;;5977818;24;20695;-86
2023/12/23 12:18:46;;;;;;;4.03;1.10;;;18.30;64.20;;;;;;5911567;24;20251;-87
2023/12/23 12:21:12;;;;;;;3.28;0.90;;;18.20;65.50;;;;;;5911678;24;20200;-87
2023/12/23 12:23:38;;;;;;;3.20;1.00;;;18.30;65.80;;;;;;5934689;24;20167;-86
2023/12/23 12:26:05;;;;;;;3.53;0.95;;;18.30;65.70;;;;;;5957520;24;20177;-87
2023/12/23 12:28:31;;;;;;;7.30;1.17;;;18.30;65.80;;;;;;5937529;24;20156;-86
2023/12/23 12:31:19;;;;;;;4.13;1.10;;;18.30;66.20;;;;;;6014967;23;20185;-86
2023/12/23 12:33:50;;;;;;;5.75;1.05;;;18.40;65.80;;;;;;5887540;24;20193;-87
2023/12/23 12:36:16;;;;;;;4.43;1.20;;;18.30;65.90;;;;;;5907996;24;20161;-87
2023/12/23 12:38:42;;;;;;;5.13;0.80;;;18.30;66.10;;;;;;5928504;24;20247;-87
2023/12/23 12:41:10;;;;;;;3.40;1.17;;;18.30;66.00;;;;;;5926024;24;20474;-85
2023/12/23 12:43:38;;;;;;;5.93;1.08;;;18.30;64.50;;;;;;5896561;24;20223;-87
2023/12/23 12:46:08;;;;;;;5.40;0.95;;;18.30;64.90;;;;;;5971134;23;20159;-85
2023/12/23 12:48:34;;;;;;;6.15;1.33;;;18.30;65.30;;;;;;5977398;23;20184;-86
2023/12/23 12:51:00;;;;;;;6.22;1.17;;;18.30;65.40;;;;;;6067759;23;20481;-86
2023/12/23 12:53:36;;;;;;;4.05;1.20;;;18.30;64.70;;;;;;6017096;23;20199;-87
2023/12/23 12:56:09;;;;;;;4.32;1.00;;;18.30;64.10;;;;;;5974261;23;20275;-86
2023/12/23 12:58:35;;;;;;;4.07;1.00;;;18.30;64.60;;;;;;6044098;23;20578;-86
2023/12/23 13:01:05;;;;;;;3.78;0.80;;;18.20;64.90;;;;;;6042218;23;20141;-86
2023/12/23 13:03:32;;;;;;;4.38;0.90;;;18.30;63.80;;;;;;5948473;23;20200;-86
2023/12/23 13:05:59;;;;;;;1.45;0.80;;;18.40;64.70;;;;;;6099506;23;20211;-86
2023/12/23 13:08:25;;;;;;;2.03;0.77;;;18.40;63.80;;;;;;6099925;23;20136;-87
2023/12/23 13:10:51;;;;;;;5.20;0.80;;;18.30;64.40;;;;;;6122478;23;20169;-86
2023/12/23 13:13:17;;;;;;;4.10;0.75;;;18.30;64.20;;;;;;6185309;23;20285;-85
2023/12/23 13:15:44;;;;;;;1.88;0.80;;;18.30;64.50;;;;;;6186741;23;20141;-86
2023/12/23 13:18:10;;;;;;;4.80;0.90;;;18.30;64.70;;;;;;6185433;23;20131;-87
2023/12/23 13:20:40;;;;;;;5.05;1.00;;;18.30;63.90;;;;;;6185523;23;20211;-86
2023/12/23 13:23:06;;;;;;;3.22;0.80;;;18.30;63.70;;;;;;6159934;23;20199;-87
2023/12/23 13:25:32;;;;;;;3.95;1.17;;;18.30;64.20;;;;;;6186184;23;20213;-86